createdAt,value
2023-04-27T00:00:40.420Z,8.30
2023-04-27T00:03:07.573Z,8.31
2023-04-27T00:05:39.397Z,8.30
2023-04-27T00:08:07.037Z,8.24
2023-04-27T00:10:33.914Z,8.28
2023-04-27T00:13:01.674Z,8.26
2023-04-27T00:15:28.506Z,8.25
2023-04-27T00:17:55.578Z,8.26
2023-04-27T00:20:22.055Z,8.26
2023-04-27T00:22:48.496Z,8.24
2023-04-27T00:25:14.907Z,8.23
2023-04-27T00:27:41.678Z,8.20
2023-04-27T00:30:09.557Z,8.18
2023-04-27T00:32:36.274Z,8.16
2023-04-27T00:35:02.790Z,8.16
2023-04-27T00:37:29.275Z,8.14
2023-04-27T00:39:55.789Z,8.09
2023-04-27T00:42:24.941Z,8.01
2023-04-27T00:44:51.603Z,7.94
2023-04-27T00:47:18.113Z,7.87
2023-04-27T00:49:44.976Z,7.78
2023-04-27T00:52:11.672Z,7.76
2023-04-27T00:54:38.430Z,7.70
2023-04-27T00:57:05.198Z,7.65
2023-04-27T00:59:31.653Z,7.61
2023-04-27T01:01:58.183Z,7.56
2023-04-27T01:04:24.924Z,7.51
2023-04-27T01:06:51.753Z,7.51
2023-04-27T01:09:19.913Z,7.49
2023-04-27T01:11:49.462Z,7.45
2023-04-27T01:14:17.190Z,7.38
2023-04-27T01:16:44.359Z,7.30
2023-04-27T01:19:11.102Z,7.25
2023-04-27T01:21:37.846Z,7.21
2023-04-27T01:24:06.260Z,7.11
2023-04-27T01:26:33.094Z,7.11
2023-04-27T01:28:59.635Z,7.07
2023-04-27T01:31:27.893Z,7.06
2023-04-27T01:33:55.141Z,7.04
2023-04-27T01:36:21.541Z,7.02
2023-04-27T01:38:48.791Z,6.99
2023-04-27T01:41:15.357Z,6.94
2023-04-27T01:43:43.612Z,6.81
2023-04-27T01:46:12.699Z,6.86
2023-04-27T01:48:40.433Z,6.82
2023-04-27T01:51:07.050Z,6.78
2023-04-27T01:53:34.164Z,6.68
2023-04-27T01:56:01.049Z,6.70
2023-04-27T01:58:27.661Z,6.67
2023-04-27T02:00:54.213Z,6.66
2023-04-27T02:03:20.892Z,6.59
2023-04-27T02:05:50.413Z,6.61
2023-04-27T02:08:16.994Z,6.59
2023-04-27T02:10:44.592Z,6.56
2023-04-27T02:13:11.110Z,6.56
2023-04-27T02:15:37.823Z,6.55
2023-04-27T02:18:04.823Z,6.51
2023-04-27T02:20:31.911Z,6.51
2023-04-27T02:23:01.040Z,6.49
2023-04-27T02:25:27.915Z,6.51
2023-04-27T02:27:54.914Z,6.49
2023-04-27T02:30:21.858Z,6.50
2023-04-27T02:32:48.775Z,6.48
2023-04-27T02:35:15.357Z,6.47
2023-04-27T02:37:41.799Z,6.45
2023-04-27T02:40:09.329Z,6.42
2023-04-27T02:42:35.839Z,6.41
2023-04-27T02:45:02.866Z,6.38
2023-04-27T02:47:29.326Z,6.34
2023-04-27T02:49:55.861Z,6.33
2023-04-27T02:52:22.753Z,6.31
2023-04-27T02:54:49.183Z,6.27
2023-04-27T02:57:15.728Z,6.21
2023-04-27T02:59:42.152Z,6.18
2023-04-27T03:02:08.820Z,6.14
2023-04-27T03:04:36.658Z,6.11
2023-04-27T03:07:03.914Z,6.06
2023-04-27T03:09:30.342Z,6.03
2023-04-27T03:11:57.298Z,5.98
2023-04-27T03:14:23.764Z,5.92
2023-04-27T03:16:51.883Z,5.89
2023-04-27T03:19:18.379Z,5.86
2023-04-27T03:21:44.809Z,5.84
2023-04-27T03:24:11.698Z,5.79
2023-04-27T03:26:38.192Z,5.74
2023-04-27T03:29:04.597Z,5.71
2023-04-27T03:31:31.178Z,5.70
2023-04-27T03:33:57.636Z,5.67
2023-04-27T03:36:24.200Z,5.61
2023-04-27T03:38:50.692Z,5.64
2023-04-27T03:41:17.399Z,5.63
2023-04-27T03:43:43.900Z,5.63
2023-04-27T03:46:10.378Z,5.63
2023-04-27T03:48:37.373Z,5.64
2023-04-27T03:51:03.886Z,5.62
2023-04-27T03:53:30.596Z,5.62
2023-04-27T03:55:57.248Z,5.62
2023-04-27T03:58:23.742Z,5.62
2023-04-27T04:01:11.782Z,5.66
2023-04-27T04:03:38.777Z,5.70
2023-04-27T04:06:07.851Z,5.75
2023-04-27T04:08:34.463Z,5.78
2023-04-27T04:11:01.141Z,5.78
2023-04-27T04:13:28.694Z,5.77
2023-04-27T04:16:06.665Z,5.78
2023-04-27T04:18:34.675Z,5.82
2023-04-27T04:21:01.240Z,5.84
2023-04-27T04:23:27.905Z,5.81
2023-04-27T04:25:58.272Z,5.87
2023-04-27T04:28:29.182Z,5.88
2023-04-27T04:30:55.695Z,5.93
2023-04-27T04:33:22.494Z,5.97
2023-04-27T04:35:49.088Z,6.03
2023-04-27T04:38:15.579Z,6.06
2023-04-27T04:40:45.302Z,6.13
2023-04-27T04:43:13.335Z,6.18
2023-04-27T04:45:39.938Z,6.27
2023-04-27T04:48:06.432Z,6.30
2023-04-27T04:50:33.065Z,6.28
2023-04-27T04:52:59.572Z,6.32
2023-04-27T04:55:28.259Z,6.36
2023-04-27T04:57:54.763Z,6.42
2023-04-27T05:00:22.478Z,6.49
2023-04-27T05:02:49.368Z,6.56
2023-04-27T05:05:16.036Z,6.61
2023-04-27T05:07:43.036Z,6.66
2023-04-27T05:10:09.681Z,6.69
2023-04-27T05:12:36.180Z,6.72
2023-04-27T05:15:02.800Z,6.78
2023-04-27T05:17:29.249Z,6.81
2023-04-27T05:19:55.851Z,6.85
2023-04-27T05:22:22.268Z,6.92
2023-04-27T05:24:48.818Z,6.98
2023-04-27T05:27:15.385Z,7.06
2023-04-27T05:29:42.243Z,7.16
2023-04-27T05:32:09.593Z,7.24
2023-04-27T05:34:36.731Z,7.33
2023-04-27T05:37:03.446Z,7.40
2023-04-27T05:39:30.170Z,7.45
2023-04-27T05:41:57.371Z,7.51
2023-04-27T05:44:28.291Z,7.61
2023-04-27T05:46:56.125Z,7.70
2023-04-27T05:49:22.817Z,7.80
2023-04-27T05:51:49.247Z,7.90
2023-04-27T05:54:16.698Z,8.01
2023-04-27T05:56:43.191Z,8.11
2023-04-27T05:59:09.909Z,8.18
2023-04-27T06:01:36.833Z,8.21
2023-04-27T06:04:04.074Z,8.21
2023-04-27T06:06:35.328Z,8.29
2023-04-27T06:09:01.964Z,8.35
2023-04-27T06:11:28.616Z,8.36
2023-04-27T06:13:55.139Z,8.44
2023-04-27T06:16:21.784Z,8.48
2023-04-27T06:18:52.485Z,8.57
2023-04-27T06:21:18.946Z,8.65
2023-04-27T06:23:45.516Z,8.74
2023-04-27T06:26:13.881Z,8.81
2023-04-27T06:28:40.326Z,8.88
2023-04-27T06:31:07.070Z,8.96
2023-04-27T06:33:33.622Z,8.99
2023-04-27T06:36:02.314Z,9.09
2023-04-27T06:38:28.905Z,9.15
2023-04-27T06:40:55.523Z,9.22
2023-04-27T06:43:22.239Z,9.25
2023-04-27T06:45:48.815Z,9.29
2023-04-27T06:48:15.425Z,9.34
2023-04-27T06:50:42.020Z,9.39
2023-04-27T06:53:09.078Z,9.43
2023-04-27T06:55:35.840Z,9.54
2023-04-27T06:58:03.414Z,9.58
2023-04-27T07:00:30.002Z,9.67
2023-04-27T07:02:56.880Z,9.74
2023-04-27T07:05:23.451Z,9.86
2023-04-27T07:07:49.947Z,9.94
2023-04-27T07:10:16.524Z,9.99
2023-04-27T07:12:43.039Z,10.07
2023-04-27T07:15:09.881Z,10.18
2023-04-27T07:17:36.372Z,10.26
2023-04-27T07:20:06.970Z,10.36
2023-04-27T07:22:33.771Z,10.42
2023-04-27T07:25:00.367Z,10.45
2023-04-27T07:27:27.407Z,10.51
2023-04-27T07:29:54.645Z,10.63
2023-04-27T07:32:21.952Z,10.68
2023-04-27T07:34:53.360Z,10.72
2023-04-27T07:37:21.224Z,10.78
2023-04-27T07:39:50.036Z,10.83
2023-04-27T07:42:16.759Z,10.91
2023-04-27T07:44:43.186Z,11.01
2023-04-27T07:47:10.084Z,11.10
2023-04-27T07:49:37.437Z,11.17
2023-04-27T07:52:04.634Z,11.27
2023-04-27T07:54:31.436Z,11.39
2023-04-27T07:56:58.051Z,11.47
2023-04-27T07:59:24.474Z,11.56
2023-04-27T08:01:51.192Z,11.66
2023-04-27T08:04:18.092Z,11.67
2023-04-27T08:06:46.713Z,11.71
2023-04-27T08:09:14.014Z,11.80
2023-04-27T08:11:40.779Z,11.81
2023-04-27T08:14:13.323Z,11.89
2023-04-27T08:16:43.588Z,12.03
2023-04-27T08:19:10.863Z,12.08
2023-04-27T08:21:38.226Z,12.06
2023-04-27T08:24:06.402Z,12.12
2023-04-27T08:26:33.360Z,12.25
2023-04-27T08:28:59.898Z,12.38
2023-04-27T08:31:26.821Z,12.46
2023-04-27T08:33:53.713Z,12.51
2023-04-27T08:36:24.487Z,12.57
2023-04-27T08:38:51.820Z,12.60
2023-04-27T08:41:22.533Z,12.68
2023-04-27T08:43:50.827Z,12.86
2023-04-27T08:46:21.428Z,13.01
2023-04-27T08:48:52.019Z,13.09
2023-04-27T08:51:18.794Z,13.16
2023-04-27T08:53:48.423Z,13.32
2023-04-27T08:56:14.994Z,13.44
2023-04-27T08:58:41.624Z,13.55
2023-04-27T09:01:08.662Z,13.59
2023-04-27T09:03:36.584Z,13.59
2023-04-27T09:06:06.681Z,13.69
2023-04-27T09:08:47.412Z,13.75
2023-04-27T09:11:38.589Z,13.89
2023-04-27T09:14:20.447Z,13.95
2023-04-27T09:16:57.985Z,14.03
2023-04-27T09:19:25.852Z,14.16
2023-04-27T09:22:06.361Z,14.25
2023-04-27T09:24:32.902Z,14.40
2023-04-27T09:27:00.969Z,14.60
2023-04-27T09:29:38.753Z,14.86
2023-04-27T09:32:19.104Z,15.02
2023-04-27T09:34:45.629Z,15.07
2023-04-27T09:37:12.772Z,15.07
2023-04-27T09:39:39.710Z,15.10
2023-04-27T09:42:06.256Z,15.18
2023-04-27T09:44:33.302Z,15.33
2023-04-27T09:47:00.921Z,15.52
2023-04-27T09:49:31.474Z,15.53
2023-04-27T09:51:58.830Z,15.50
2023-04-27T09:54:30.160Z,15.57
2023-04-27T09:57:23.852Z,15.64
2023-04-27T10:00:29.482Z,15.68
2023-04-27T10:03:10.871Z,15.51
2023-04-27T10:05:59.836Z,15.53
2023-04-27T10:08:26.909Z,15.26
2023-04-27T10:10:53.669Z,15.09
2023-04-27T10:13:22.634Z,14.98
2023-04-27T10:15:49.177Z,14.84
2023-04-27T10:18:31.221Z,14.87
2023-04-27T10:21:09.468Z,15.01
2023-04-27T10:23:46.696Z,15.10
2023-04-27T10:26:13.120Z,15.18
2023-04-27T10:28:40.219Z,15.37
2023-04-27T10:31:11.142Z,15.46
2023-04-27T10:33:43.585Z,15.60
2023-04-27T10:36:15.828Z,15.69
2023-04-27T10:38:42.244Z,15.88
2023-04-27T10:41:14.733Z,15.95
2023-04-27T10:43:41.164Z,15.81
2023-04-27T10:46:14.947Z,15.66
2023-04-27T10:48:43.454Z,15.57
2023-04-27T10:51:10.252Z,15.67
2023-04-27T10:53:37.330Z,15.84
2023-04-27T10:56:06.646Z,16.29
2023-04-27T10:58:45.324Z,16.48
2023-04-27T11:01:27.049Z,16.08
2023-04-27T11:03:57.880Z,15.93
2023-04-27T11:06:24.689Z,15.96
2023-04-27T11:08:51.474Z,16.07
2023-04-27T11:11:18.154Z,16.30
2023-04-27T11:13:44.879Z,16.27
2023-04-27T11:16:11.569Z,16.31
2023-04-27T11:18:38.391Z,16.66
2023-04-27T11:21:07.631Z,17.02
2023-04-27T11:23:38.337Z,17.41
2023-04-27T11:26:17.165Z,17.83
2023-04-27T11:28:45.720Z,18.15
2023-04-27T11:31:12.440Z,18.27
2023-04-27T11:33:41.552Z,18.53
2023-04-27T11:36:16.802Z,18.60
2023-04-27T11:38:43.730Z,18.12
2023-04-27T11:41:10.375Z,17.62
2023-04-27T11:43:43.092Z,17.36
2023-04-27T11:46:13.210Z,17.13
2023-04-27T11:48:39.993Z,16.95
2023-04-27T11:51:09.655Z,16.83
2023-04-27T11:53:38.911Z,16.70
2023-04-27T11:56:10.884Z,16.69
2023-04-27T11:58:42.578Z,16.77
2023-04-27T12:01:12.000Z,16.81
2023-04-27T12:03:39.047Z,16.65
2023-04-27T12:06:16.593Z,16.41
2023-04-27T12:08:48.362Z,16.19
2023-04-27T12:11:15.017Z,16.06
2023-04-27T12:13:41.503Z,16.03
2023-04-27T12:16:08.003Z,15.92
2023-04-27T12:18:34.558Z,15.89
2023-04-27T12:21:03.037Z,15.85
2023-04-27T12:23:30.015Z,15.80
2023-04-27T12:25:56.548Z,15.84
2023-04-27T12:28:23.354Z,15.85
2023-04-27T12:30:49.930Z,15.94
2023-04-27T12:33:16.832Z,16.06
2023-04-27T12:35:43.371Z,16.07
2023-04-27T12:38:09.919Z,15.99
2023-04-27T12:40:36.628Z,16.03
2023-04-27T12:43:03.049Z,16.33
2023-04-27T12:45:29.499Z,16.43
2023-04-27T12:48:03.298Z,16.37
2023-04-27T12:50:34.358Z,16.21
2023-04-27T12:53:00.987Z,16.10
2023-04-27T12:55:33.868Z,16.03
2023-04-27T12:58:01.990Z,16.05
2023-04-27T13:00:29.641Z,16.17
2023-04-27T13:02:57.031Z,16.37
2023-04-27T13:05:23.777Z,16.27
2023-04-27T13:07:50.301Z,16.22
2023-04-27T13:10:16.810Z,16.11
2023-04-27T13:12:43.294Z,16.18
2023-04-27T13:15:10.304Z,16.23
2023-04-27T13:17:37.182Z,16.30
2023-04-27T13:20:04.143Z,16.53
2023-04-27T13:22:30.628Z,16.81
2023-04-27T13:24:57.096Z,16.96
2023-04-27T13:27:25.281Z,16.93
2023-04-27T13:29:51.815Z,16.85
2023-04-27T13:32:18.615Z,16.78
2023-04-27T13:34:45.156Z,16.63
2023-04-27T13:37:11.621Z,16.59
2023-04-27T13:39:38.066Z,16.62
2023-04-27T13:42:04.613Z,16.67
2023-04-27T13:44:31.906Z,16.72
2023-04-27T13:46:58.566Z,16.79
2023-04-27T13:49:25.853Z,16.94
2023-04-27T13:51:52.643Z,17.04
2023-04-27T13:54:20.523Z,17.03
2023-04-27T13:56:47.334Z,16.98
2023-04-27T13:59:13.983Z,16.97
2023-04-27T14:01:40.690Z,16.93
2023-04-27T14:04:07.471Z,16.86
2023-04-27T14:06:34.232Z,16.81
2023-04-27T14:09:00.811Z,16.82
2023-04-27T14:11:27.513Z,16.81
2023-04-27T14:13:53.978Z,16.92
2023-04-27T14:16:20.901Z,17.03
2023-04-27T14:18:47.406Z,17.06
2023-04-27T14:21:13.884Z,17.49
2023-04-27T14:23:40.324Z,17.85
2023-04-27T14:26:06.834Z,18.20
2023-04-27T14:28:33.315Z,18.58
2023-04-27T14:30:59.738Z,19.06
2023-04-27T14:33:26.366Z,19.22
2023-04-27T14:35:52.921Z,19.46
2023-04-27T14:38:19.352Z,19.38
2023-04-27T14:40:46.002Z,19.26
2023-04-27T14:43:12.430Z,19.54
2023-04-27T14:45:48.016Z,19.96
2023-04-27T14:48:19.020Z,20.09
2023-04-27T14:50:45.621Z,20.19
2023-04-27T14:53:12.111Z,20.19
2023-04-27T14:55:38.646Z,20.14
2023-04-27T14:58:05.544Z,19.91
2023-04-27T15:00:32.211Z,20.10
2023-04-27T15:02:58.732Z,20.45
2023-04-27T15:05:25.687Z,20.70
2023-04-27T15:07:52.127Z,20.55
2023-04-27T15:10:18.703Z,19.99
2023-04-27T15:12:45.784Z,19.53
2023-04-27T15:15:15.210Z,19.25
2023-04-27T15:17:41.773Z,18.99
2023-04-27T15:20:08.728Z,18.75
2023-04-27T15:22:35.212Z,18.58
2023-04-27T15:25:01.989Z,18.33
2023-04-27T15:27:28.436Z,18.38
2023-04-27T15:29:55.232Z,18.42
2023-04-27T15:32:24.499Z,18.34
2023-04-27T15:34:51.809Z,18.42
2023-04-27T15:37:18.625Z,18.64
2023-04-27T15:39:45.140Z,18.97
2023-04-27T15:42:11.677Z,19.10
2023-04-27T15:44:38.118Z,19.25
2023-04-27T15:47:05.043Z,19.45
2023-04-27T15:49:33.153Z,19.44
2023-04-27T15:52:02.372Z,19.51
2023-04-27T15:54:28.819Z,19.59
2023-04-27T15:56:55.266Z,19.65
2023-04-27T15:59:21.700Z,19.95
2023-04-27T16:01:48.168Z,20.21
2023-04-27T16:04:14.939Z,20.38
2023-04-27T16:06:41.681Z,20.42
2023-04-27T16:09:10.605Z,20.21
2023-04-27T16:11:37.206Z,20.04
2023-04-27T16:14:03.685Z,19.81
2023-04-27T16:16:30.211Z,19.53
2023-04-27T16:18:58.171Z,19.31
2023-04-27T16:21:25.065Z,19.03
2023-04-27T16:23:51.603Z,18.70
2023-04-27T16:26:18.118Z,18.43
2023-04-27T16:28:44.602Z,18.20
2023-04-27T16:31:12.848Z,18.10
2023-04-27T16:33:39.718Z,17.97
2023-04-27T16:36:06.346Z,17.83
2023-04-27T16:38:32.850Z,17.72
2023-04-27T16:40:59.297Z,17.69
2023-04-27T16:43:26.079Z,17.65
2023-04-27T16:45:52.594Z,17.60
2023-04-27T16:48:19.077Z,17.80
2023-04-27T16:50:46.651Z,17.79
2023-04-27T16:53:14.828Z,17.79
2023-04-27T16:55:41.345Z,17.79
2023-04-27T16:58:07.801Z,17.82
2023-04-27T17:00:34.331Z,17.87
2023-04-27T17:03:01.332Z,18.01
2023-04-27T17:05:27.872Z,18.15
2023-04-27T17:07:54.330Z,18.37
2023-04-27T17:10:21.012Z,18.62
2023-04-27T17:12:47.443Z,18.82
2023-04-27T17:15:13.953Z,19.04
2023-04-27T17:17:41.243Z,19.22
2023-04-27T17:20:09.527Z,19.30
2023-04-27T17:22:36.957Z,19.33
2023-04-27T17:25:04.146Z,19.28
2023-04-27T17:27:30.755Z,19.29
2023-04-27T17:29:57.959Z,19.38
2023-04-27T17:32:24.651Z,19.43
2023-04-27T17:34:52.440Z,19.47
2023-04-27T17:37:18.842Z,19.61
2023-04-27T17:39:45.370Z,20.42
2023-04-27T17:42:12.514Z,20.93
2023-04-27T17:44:41.108Z,20.86
2023-04-27T17:47:08.403Z,20.39
2023-04-27T17:49:35.490Z,19.87
2023-04-27T17:52:02.432Z,19.18
2023-04-27T17:54:30.068Z,18.56
2023-04-27T17:56:57.098Z,17.99
2023-04-27T17:59:24.754Z,17.56
2023-04-27T18:01:51.530Z,17.18
2023-04-27T18:04:18.252Z,16.90
2023-04-27T18:06:44.820Z,16.63
2023-04-27T18:09:12.062Z,16.37
2023-04-27T18:11:38.774Z,16.13
2023-04-27T18:14:05.200Z,15.90
2023-04-27T18:16:31.693Z,15.69
2023-04-27T18:18:58.153Z,15.51
2023-04-27T18:21:26.677Z,15.37
2023-04-27T18:23:53.206Z,15.20
2023-04-27T18:26:19.896Z,15.06
2023-04-27T18:28:46.383Z,14.94
2023-04-27T18:31:16.872Z,14.78
2023-04-27T18:33:46.918Z,14.68
2023-04-27T18:36:13.573Z,14.52
2023-04-27T18:38:40.161Z,14.39
2023-04-27T18:41:07.234Z,14.30
2023-04-27T18:43:35.704Z,14.23
2023-04-27T18:46:02.975Z,14.11
2023-04-27T18:48:29.524Z,14.06
2023-04-27T18:50:55.972Z,13.98
2023-04-27T18:53:22.457Z,13.89
2023-04-27T18:55:49.022Z,13.82
2023-04-27T18:58:15.939Z,13.76
2023-04-27T19:00:42.528Z,13.68
2023-04-27T19:03:09.065Z,13.61
2023-04-27T19:05:36.455Z,13.55
2023-04-27T19:08:03.089Z,13.57
2023-04-27T19:10:29.544Z,13.53
2023-04-27T19:12:57.030Z,13.49
2023-04-27T19:15:23.678Z,13.42
2023-04-27T19:17:58.498Z,13.38
2023-04-27T19:20:33.529Z,13.31
2023-04-27T19:23:00.125Z,13.26
2023-04-27T19:25:26.775Z,13.22
2023-04-27T19:27:53.284Z,13.18
2023-04-27T19:30:19.973Z,13.16
2023-04-27T19:32:46.493Z,13.14
2023-04-27T19:35:13.730Z,13.12
2023-04-27T19:37:40.277Z,13.11
2023-04-27T19:40:08.602Z,13.06
2023-04-27T19:42:35.071Z,13.01
2023-04-27T19:45:01.759Z,12.96
2023-04-27T19:47:28.249Z,12.93
2023-04-27T19:49:54.771Z,12.86
2023-04-27T19:52:21.171Z,12.81
2023-04-27T19:54:52.055Z,12.77
2023-04-27T19:57:18.730Z,12.72
2023-04-27T19:59:45.174Z,12.67
2023-04-27T20:02:11.674Z,12.65
2023-04-27T20:04:39.718Z,12.61
2023-04-27T20:07:06.449Z,12.58
2023-04-27T20:09:32.916Z,12.56
2023-04-27T20:11:59.337Z,12.53
2023-04-27T20:14:28.928Z,12.52
2023-04-27T20:16:55.402Z,12.49
2023-04-27T20:19:22.615Z,12.49
2023-04-27T20:21:50.032Z,12.46
2023-04-27T20:24:16.966Z,12.46
2023-04-27T20:26:43.740Z,12.46
2023-04-27T20:29:10.458Z,12.44
2023-04-27T20:31:36.948Z,12.44
2023-04-27T20:34:03.370Z,12.44
2023-04-27T20:36:29.927Z,12.46
2023-04-27T20:38:57.503Z,12.48
2023-04-27T20:41:24.149Z,12.49
2023-04-27T20:43:52.426Z,12.49
2023-04-27T20:46:19.027Z,12.51
2023-04-27T20:48:46.145Z,12.54
2023-04-27T20:51:12.769Z,12.52
2023-04-27T20:53:40.115Z,12.53
2023-04-27T20:56:06.889Z,12.54
2023-04-27T20:58:33.316Z,12.49
2023-04-27T21:00:59.809Z,12.46
2023-04-27T21:03:26.569Z,12.43
2023-04-27T21:05:53.187Z,12.40
2023-04-27T21:08:19.615Z,12.31
2023-04-27T21:10:46.146Z,12.23
2023-04-27T21:13:12.568Z,12.16
2023-04-27T21:15:39.019Z,12.12
2023-04-27T21:18:07.876Z,12.07
2023-04-27T21:20:36.109Z,12.01
2023-04-27T21:23:02.746Z,11.95
2023-04-27T21:25:29.260Z,11.87
2023-04-27T21:27:55.658Z,11.87
2023-04-27T21:30:22.127Z,11.83
2023-04-27T21:32:48.720Z,11.81
2023-04-27T21:35:15.323Z,11.79
2023-04-27T21:37:41.779Z,11.77
2023-04-27T21:40:08.904Z,11.74
2023-04-27T21:42:35.365Z,11.74
2023-04-27T21:45:03.635Z,11.70
2023-04-27T21:47:30.132Z,11.67
2023-04-27T21:49:56.629Z,11.67
2023-04-27T21:52:24.392Z,11.70
2023-04-27T21:54:50.836Z,11.71
2023-04-27T21:57:19.448Z,11.74
2023-04-27T21:59:46.628Z,11.75
2023-04-27T22:02:13.115Z,11.74
2023-04-27T22:04:39.627Z,11.75
2023-04-27T22:07:07.925Z,11.71
2023-04-27T22:09:35.443Z,11.74
2023-04-27T22:12:02.951Z,11.73
2023-04-27T22:14:30.680Z,11.71
2023-04-27T22:16:58.250Z,11.70
2023-04-27T22:19:27.944Z,11.66
2023-04-27T22:21:54.832Z,11.63
2023-04-27T22:24:21.328Z,11.59
2023-04-27T22:26:48.368Z,11.55
2023-04-27T22:29:15.420Z,11.51
2023-04-27T22:31:42.620Z,11.47
2023-04-27T22:34:11.030Z,11.42
2023-04-27T22:36:37.794Z,11.39
2023-04-27T22:39:05.386Z,11.39
2023-04-27T22:41:31.795Z,11.35
2023-04-27T22:43:58.180Z,11.34
2023-04-27T22:46:24.666Z,11.35
2023-04-27T22:48:52.587Z,11.33
2023-04-27T22:51:19.089Z,11.30
2023-04-27T22:53:45.516Z,11.29
2023-04-27T22:56:11.960Z,11.27
2023-04-27T22:58:38.373Z,11.22
2023-04-27T23:01:04.964Z,11.20
2023-04-27T23:03:31.693Z,11.18
2023-04-27T23:06:00.752Z,11.17
2023-04-27T23:08:27.244Z,11.16
2023-04-27T23:10:53.730Z,11.15
2023-04-27T23:13:21.268Z,11.14
2023-04-27T23:15:48.132Z,11.14
2023-04-27T23:18:14.807Z,11.13
2023-04-27T23:20:41.505Z,11.13
2023-04-27T23:23:07.913Z,11.14
2023-04-27T23:25:34.499Z,11.11
2023-04-27T23:28:01.142Z,11.11
2023-04-27T23:30:27.662Z,11.13
2023-04-27T23:32:54.137Z,11.12
2023-04-27T23:35:20.902Z,11.12
2023-04-27T23:37:47.387Z,11.10
2023-04-27T23:40:14.290Z,11.08
2023-04-27T23:42:40.715Z,11.06
2023-04-27T23:45:07.668Z,11.04
2023-04-27T23:47:34.373Z,11.02
2023-04-27T23:50:02.257Z,11.02
2023-04-27T23:52:28.675Z,11.05
2023-04-27T23:54:55.058Z,11.00
2023-04-27T23:57:21.522Z,10.92
2023-04-27T23:59:47.917Z,10.90
